createdAt,value
2018-11-06T00:01:13.364Z,13.73
2018-11-06T00:04:04.061Z,13.50
2018-11-06T00:06:37.259Z,14.73
2018-11-06T00:09:14.049Z,12.87
2018-11-06T00:11:48.058Z,14.00
2018-11-06T00:14:22.468Z,14.10
2018-11-06T00:16:56.776Z,14.23
2018-11-06T00:19:27.840Z,13.40
2018-11-06T00:22:01.577Z,13.30
2018-11-06T00:24:34.920Z,14.20
2018-11-06T00:27:08.940Z,14.03
2018-11-06T00:29:40.392Z,13.57
2018-11-06T00:32:14.973Z,13.83
2018-11-06T00:34:48.579Z,13.67
2018-11-06T00:37:22.947Z,14.03
2018-11-06T00:39:56.696Z,13.47
2018-11-06T00:42:30.479Z,14.37
2018-11-06T00:45:05.045Z,13.60
2018-11-06T00:47:39.037Z,13.40
2018-11-06T00:50:14.302Z,13.53
2018-11-06T00:52:47.967Z,13.67
2018-11-06T00:55:21.915Z,13.50
2018-11-06T00:57:56.591Z,13.70
2018-11-06T01:00:32.126Z,14.27
2018-11-06T01:03:05.522Z,15.37
2018-11-06T01:05:40.938Z,15.67
2018-11-06T01:08:14.902Z,14.90
2018-11-06T01:10:49.660Z,14.57
2018-11-06T01:13:23.458Z,11.83
2018-11-06T01:15:57.040Z,12.63
2018-11-06T01:18:33.618Z,13.20
2018-11-06T01:21:07.897Z,12.80
2018-11-06T01:23:44.187Z,13.70
2018-11-06T01:26:18.266Z,12.07
2018-11-06T01:28:52.650Z,13.87
2018-11-06T01:31:27.048Z,12.50
2018-11-06T01:34:00.740Z,13.37
2018-11-06T01:36:34.604Z,12.77
2018-11-06T01:39:13.211Z,12.83
2018-11-06T01:41:47.361Z,13.33
2018-11-06T01:46:54.472Z,12.97
2018-11-06T01:49:27.749Z,12.97
2018-11-06T01:52:01.609Z,13.07
2018-11-06T01:54:35.130Z,12.73
2018-11-06T01:57:08.231Z,13.43
2018-11-06T01:59:41.980Z,13.03
2018-11-06T02:02:16.273Z,13.43
2018-11-06T02:04:50.214Z,13.10
2018-11-06T02:07:25.415Z,13.27
2018-11-06T02:09:58.506Z,12.93
2018-11-06T02:12:32.257Z,13.47
2018-11-06T02:15:06.120Z,12.80
2018-11-06T02:17:41.210Z,12.47
2018-11-06T02:20:15.348Z,12.03
2018-11-06T02:22:49.113Z,12.40
2018-11-06T02:25:22.297Z,12.37
2018-11-06T02:27:56.178Z,12.60
2018-11-06T02:30:30.318Z,13.23
2018-11-06T02:33:02.539Z,12.70
2018-11-06T02:35:37.601Z,11.60
2018-11-06T02:38:11.240Z,11.87
2018-11-06T02:40:44.773Z,11.97
2018-11-06T02:43:16.661Z,12.93
2018-11-06T02:45:50.880Z,12.07
2018-11-06T02:48:23.649Z,12.43
2018-11-06T02:50:57.996Z,12.63
2018-11-06T02:53:35.564Z,13.17
2018-11-06T02:56:10.452Z,12.00
2018-11-06T02:58:44.984Z,12.60
2018-11-06T03:01:18.853Z,12.40
2018-11-06T03:03:52.490Z,12.70
2018-11-06T03:06:26.477Z,11.53
2018-11-06T03:09:00.252Z,11.80
2018-11-06T03:11:36.974Z,12.23
2018-11-06T03:14:09.934Z,13.17
2018-11-06T03:16:43.059Z,12.00
2018-11-06T03:19:14.308Z,11.03
2018-11-06T03:21:47.906Z,10.97
2018-11-06T03:24:22.738Z,11.63
2018-11-06T03:26:56.507Z,12.57
2018-11-06T03:29:29.950Z,12.23
2018-11-06T03:32:03.953Z,11.03
2018-11-06T03:34:37.043Z,11.60
2018-11-06T03:37:10.843Z,11.63
2018-11-06T03:39:45.035Z,11.53
2018-11-06T03:42:18.316Z,11.70
2018-11-06T03:44:51.986Z,11.57
2018-11-06T03:47:25.574Z,11.57
2018-11-06T03:49:59.342Z,12.50
2018-11-06T03:52:33.338Z,12.20
2018-11-06T03:55:07.541Z,12.17
2018-11-06T03:57:41.293Z,10.57
2018-11-06T04:00:18.932Z,12.20
2018-11-06T04:02:50.327Z,11.93
2018-11-06T04:05:22.259Z,12.07
2018-11-06T04:07:53.686Z,11.27
2018-11-06T04:10:24.730Z,10.87
2018-11-06T04:12:55.782Z,11.13
2018-11-06T04:15:26.954Z,10.87
2018-11-06T04:17:58.405Z,11.93
2018-11-06T04:20:29.783Z,10.67
2018-11-06T04:23:00.868Z,10.70
2018-11-06T04:25:31.931Z,10.97
2018-11-06T04:28:03.782Z,11.03
2018-11-06T04:30:34.905Z,11.23
2018-11-06T04:33:05.922Z,10.50
2018-11-06T04:35:37.303Z,10.97
2018-11-06T04:38:08.435Z,11.27
2018-11-06T04:40:39.657Z,12.93
2018-11-06T04:43:10.687Z,13.57
2018-11-06T04:45:41.750Z,12.50
2018-11-06T04:48:12.817Z,11.37
2018-11-06T04:50:44.295Z,11.23
2018-11-06T04:53:15.348Z,11.00
2018-11-06T04:55:46.404Z,11.63
2018-11-06T04:58:17.750Z,11.63
2018-11-06T05:00:49.120Z,11.43
2018-11-06T05:03:20.171Z,11.80
2018-11-06T05:05:51.657Z,11.77
2018-11-06T05:08:23.272Z,11.97
2018-11-06T05:10:54.358Z,12.20
2018-11-06T05:13:25.424Z,10.63
2018-11-06T05:15:56.521Z,11.23
2018-11-06T05:18:27.742Z,12.27
2018-11-06T05:20:58.881Z,11.33
2018-11-06T05:23:31.189Z,11.20
2018-11-06T05:26:02.292Z,11.33
2018-11-06T05:28:33.382Z,12.20
2018-11-06T05:31:04.961Z,12.47
2018-11-06T05:33:35.994Z,12.50
2018-11-06T05:36:07.292Z,12.63
2018-11-06T05:38:38.624Z,13.63
2018-11-06T05:41:10.139Z,13.37
2018-11-06T05:43:41.179Z,12.40
2018-11-06T05:46:12.262Z,13.27
2018-11-06T05:48:43.348Z,12.43
2018-11-06T05:51:14.551Z,12.63
2018-11-06T05:53:47.842Z,12.87
2018-11-06T05:56:18.887Z,12.83
2018-11-06T05:58:50.258Z,12.83
2018-11-06T06:01:22.241Z,11.90
2018-11-06T06:03:53.540Z,11.67
2018-11-06T06:06:24.533Z,13.23
2018-11-06T06:08:57.863Z,12.60
2018-11-06T06:11:29.202Z,12.87
2018-11-06T06:14:00.197Z,12.03
2018-11-06T06:16:32.335Z,12.57
2018-11-06T06:19:03.362Z,10.33
2018-11-06T06:21:34.530Z,13.03
2018-11-06T06:24:06.185Z,13.47
2018-11-06T06:26:37.431Z,13.03
2018-11-06T06:29:08.612Z,15.00
2018-11-06T06:31:39.761Z,13.70
2018-11-06T06:34:10.897Z,15.20
2018-11-06T06:36:41.944Z,14.30
2018-11-06T06:39:13.035Z,14.53
2018-11-06T06:41:44.083Z,14.23
2018-11-06T06:44:15.370Z,14.10
2018-11-06T06:46:46.459Z,12.80
2018-11-06T06:49:17.814Z,13.67
2018-11-06T06:51:49.326Z,15.67
2018-11-06T06:54:20.566Z,15.20
2018-11-06T06:56:51.552Z,15.10
2018-11-06T06:59:23.660Z,13.37
2018-11-06T07:01:54.641Z,14.67
2018-11-06T07:04:28.200Z,13.37
2018-11-06T07:07:01.624Z,13.23
2018-11-06T07:09:35.542Z,14.67
2018-11-06T07:12:07.993Z,14.47
2018-11-06T07:14:41.506Z,15.57
2018-11-06T07:17:16.072Z,13.70
2018-11-06T07:19:47.099Z,14.00
2018-11-06T07:22:21.611Z,13.63
2018-11-06T07:24:56.109Z,15.40
2018-11-06T07:27:33.715Z,13.87
2018-11-06T07:30:08.853Z,14.23
2018-11-06T07:32:42.764Z,13.43
2018-11-06T07:35:26.435Z,14.73
2018-11-06T07:38:22.064Z,12.93
2018-11-06T07:41:08.395Z,13.43
2018-11-06T07:43:44.258Z,14.37
2018-11-06T07:46:17.863Z,16.33
2018-11-06T07:48:51.998Z,16.70
2018-11-06T07:51:27.263Z,15.23
2018-11-06T07:54:01.071Z,15.10
2018-11-06T07:56:34.501Z,14.30
2018-11-06T07:59:09.066Z,15.77
2018-11-06T08:01:42.533Z,15.27
2018-11-06T08:04:16.747Z,14.67
2018-11-06T08:06:50.722Z,15.03
2018-11-06T08:09:24.078Z,14.20
2018-11-06T08:11:58.384Z,14.10
2018-11-06T08:14:33.295Z,13.63
2018-11-06T08:17:07.106Z,15.23
2018-11-06T08:19:43.895Z,13.43
2018-11-06T08:22:19.162Z,14.43
2018-11-06T08:24:59.262Z,14.77
2018-11-06T08:27:33.304Z,14.03
2018-11-06T08:30:07.996Z,14.07
2018-11-06T08:32:41.693Z,12.60
2018-11-06T08:35:19.533Z,14.60
2018-11-06T08:37:56.891Z,13.27
2018-11-06T08:40:31.440Z,14.77
2018-11-06T08:43:07.441Z,14.30
2018-11-06T08:45:42.479Z,13.83
2018-11-06T08:48:16.892Z,14.67
2018-11-06T08:50:52.520Z,15.77
2018-11-06T08:53:26.747Z,14.57
2018-11-06T08:55:58.179Z,14.17
2018-11-06T08:58:29.299Z,14.70
2018-11-06T09:01:00.360Z,13.37
2018-11-06T09:03:31.755Z,16.63
2018-11-06T09:06:02.835Z,17.37
2018-11-06T09:08:34.038Z,18.80
2018-11-06T09:11:05.406Z,14.30
2018-11-06T09:13:36.459Z,13.20
2018-11-06T09:16:08.088Z,14.00
2018-11-06T09:18:39.694Z,12.93
2018-11-06T09:21:11.168Z,14.17
2018-11-06T09:23:46.701Z,13.53
2018-11-06T09:26:20.329Z,13.17
2018-11-06T09:28:51.695Z,12.73
2018-11-06T09:31:26.694Z,13.00
2018-11-06T09:33:58.068Z,12.53
2018-11-06T09:36:29.680Z,12.73
2018-11-06T09:39:00.773Z,12.13
2018-11-06T09:41:32.557Z,13.30
2018-11-06T09:44:03.827Z,13.03
2018-11-06T09:46:35.153Z,12.70
2018-11-06T09:49:14.361Z,13.50
2018-11-06T09:51:43.378Z,14.00
2018-11-06T09:54:20.820Z,14.03
2018-11-06T09:56:51.821Z,12.37
2018-11-06T09:59:26.568Z,14.03
2018-11-06T10:01:57.747Z,13.17
2018-11-06T10:04:29.046Z,13.70
2018-11-06T10:07:00.542Z,14.00
2018-11-06T10:09:31.246Z,17.20
2018-11-06T10:12:04.792Z,15.27
2018-11-06T10:14:36.291Z,15.07
2018-11-06T10:17:07.570Z,14.93
2018-11-06T10:19:38.992Z,13.40
2018-11-06T10:22:10.104Z,11.43
2018-11-06T10:24:41.212Z,12.37
2018-11-06T10:27:12.705Z,10.93
2018-11-06T10:29:44.065Z,15.37
2018-11-06T10:32:15.132Z,13.23
2018-11-06T10:34:46.215Z,11.80
2018-11-06T10:37:17.756Z,11.90
2018-11-06T10:39:49.008Z,12.70
2018-11-06T10:42:21.297Z,12.97
2018-11-06T10:44:52.836Z,13.13
2018-11-06T10:47:24.267Z,11.63
2018-11-06T10:49:55.366Z,12.53
2018-11-06T10:52:26.631Z,11.47
2018-11-06T10:54:57.814Z,9.77
2018-11-06T10:57:28.959Z,11.77
2018-11-06T11:00:00.397Z,10.63
2018-11-06T11:02:49.390Z,12.17
2018-11-06T11:05:21.445Z,10.90
2018-11-06T11:07:52.509Z,10.77
2018-11-06T11:10:24.382Z,8.83
2018-11-06T11:12:55.450Z,8.70
2018-11-06T11:15:30.237Z,9.07
2018-11-06T11:18:01.752Z,9.13
2018-11-06T11:20:33.084Z,10.00
2018-11-06T11:23:04.337Z,9.13
2018-11-06T11:25:36.105Z,8.40
2018-11-06T11:28:07.375Z,8.23
2018-11-06T11:30:38.423Z,9.43
2018-11-06T11:33:09.928Z,8.87
2018-11-06T11:35:41.152Z,8.77
2018-11-06T11:38:12.649Z,8.80
2018-11-06T11:40:44.211Z,8.73
2018-11-06T11:43:15.285Z,8.73
2018-11-06T11:45:46.375Z,9.00
2018-11-06T11:48:19.699Z,10.17
2018-11-06T11:50:50.802Z,9.30
2018-11-06T11:53:22.251Z,8.37
2018-11-06T11:55:53.343Z,9.27
2018-11-06T11:58:26.144Z,10.10
2018-11-06T12:00:58.097Z,10.10
2018-11-06T12:03:29.772Z,9.53
2018-11-06T12:06:01.761Z,9.33
2018-11-06T12:08:33.860Z,9.77
2018-11-06T12:11:09.694Z,9.73
2018-11-06T12:13:41.118Z,9.57
2018-11-06T12:16:12.531Z,10.07
2018-11-06T12:18:43.853Z,9.07
2018-11-06T12:21:19.279Z,9.60
2018-11-06T12:23:51.084Z,11.23
2018-11-06T12:26:23.527Z,11.27
2018-11-06T12:28:55.786Z,9.00
2018-11-06T12:31:28.297Z,8.90
2018-11-06T12:34:02.494Z,9.37
2018-11-06T12:36:38.982Z,8.10
2018-11-06T12:39:11.724Z,7.63
2018-11-06T12:41:45.111Z,7.93
2018-11-06T12:44:18.493Z,8.80
2018-11-06T12:46:49.595Z,8.60
2018-11-06T12:49:20.698Z,7.23
2018-11-06T12:51:52.214Z,8.07
2018-11-06T12:54:23.341Z,7.07
2018-11-06T12:56:56.291Z,7.47
2018-11-06T12:59:32.261Z,7.03
2018-11-06T13:02:03.685Z,7.00
2018-11-06T13:04:34.866Z,6.93
2018-11-06T13:07:09.546Z,7.00
2018-11-06T13:09:40.511Z,7.03
2018-11-06T13:12:11.607Z,6.13
2018-11-06T13:14:44.044Z,6.17
2018-11-06T13:17:16.670Z,6.27
2018-11-06T13:19:47.780Z,6.17
2018-11-06T13:22:25.892Z,6.07
2018-11-06T13:24:56.957Z,5.23
2018-11-06T13:27:34.255Z,4.97
2018-11-06T13:30:07.207Z,5.93
2018-11-06T13:32:43.925Z,5.83
2018-11-06T13:35:16.298Z,5.77
2018-11-06T13:37:48.163Z,5.43
2018-11-06T13:40:21.029Z,5.83
2018-11-06T13:42:53.914Z,6.00
2018-11-06T13:45:26.683Z,4.93
2018-11-06T13:47:59.031Z,5.27
2018-11-06T13:50:30.925Z,5.17
2018-11-06T13:53:10.565Z,5.10
2018-11-06T13:55:45.022Z,5.47
2018-11-06T13:58:18.895Z,5.40
2018-11-06T14:00:51.501Z,5.00
2018-11-06T14:03:28.762Z,5.00
2018-11-06T14:06:02.333Z,5.07
2018-11-06T14:08:34.099Z,4.00
2018-11-06T14:11:05.851Z,4.53
2018-11-06T14:13:36.935Z,5.00
2018-11-06T14:16:08.629Z,4.90
2018-11-06T14:18:40.435Z,5.07
2018-11-06T14:21:11.610Z,4.10
2018-11-06T14:23:42.789Z,4.90
2018-11-06T14:26:18.614Z,4.77
2018-11-06T14:28:49.703Z,4.57
2018-11-06T14:31:23.432Z,4.70
2018-11-06T14:33:54.594Z,4.90
2018-11-06T14:36:28.255Z,5.90
2018-11-06T14:38:59.328Z,6.00
2018-11-06T14:41:36.814Z,5.47
2018-11-06T14:44:08.413Z,4.83
2018-11-06T14:46:39.883Z,6.47
2018-11-06T14:49:10.985Z,5.70
2018-11-06T14:51:42.014Z,5.80
2018-11-06T14:54:13.074Z,5.03
2018-11-06T14:56:45.953Z,5.47
2018-11-06T14:59:19.083Z,6.23
2018-11-06T15:01:51.254Z,7.17
2018-11-06T15:04:23.075Z,6.50
2018-11-06T15:06:56.034Z,6.80
2018-11-06T15:09:31.974Z,6.70
2018-11-06T15:12:03.132Z,5.87
2018-11-06T15:14:34.175Z,7.70
2018-11-06T15:17:05.733Z,6.30
2018-11-06T15:19:39.904Z,6.50
2018-11-06T15:22:10.967Z,6.63
2018-11-06T15:24:42.101Z,6.27
2018-11-06T15:27:13.132Z,6.30
2018-11-06T15:29:44.666Z,6.87
2018-11-06T15:32:16.109Z,7.17
2018-11-06T15:34:51.233Z,5.83
2018-11-06T15:37:22.324Z,7.03
2018-11-06T15:39:53.405Z,6.43
2018-11-06T15:42:24.475Z,6.30
2018-11-06T15:44:55.613Z,6.47
2018-11-06T15:47:26.782Z,6.13
2018-11-06T15:49:58.877Z,6.27
2018-11-06T15:52:31.365Z,5.80
2018-11-06T15:55:06.885Z,6.50
2018-11-06T15:57:38.771Z,6.47
2018-11-06T16:00:31.791Z,7.70
2018-11-06T16:03:05.237Z,7.47
2018-11-06T16:05:36.376Z,6.80
2018-11-06T16:08:10.462Z,6.13
2018-11-06T16:10:41.321Z,6.30
2018-11-06T16:13:16.899Z,6.33
2018-11-06T16:15:47.933Z,6.87
2018-11-06T16:18:19.084Z,6.90
2018-11-06T16:20:50.221Z,6.63
2018-11-06T16:23:22.491Z,7.00
2018-11-06T16:26:02.151Z,6.83
2018-11-06T16:28:33.236Z,7.20
2018-11-06T16:31:07.277Z,7.73
2018-11-06T16:33:38.301Z,7.57
2018-11-06T16:36:09.458Z,9.47
2018-11-06T16:38:40.509Z,7.60
2018-11-06T16:41:12.654Z,9.63
2018-11-06T16:43:43.803Z,9.70
2018-11-06T16:46:14.887Z,9.47
2018-11-06T16:48:50.977Z,9.33
2018-11-06T16:51:22.940Z,9.90
2018-11-06T16:53:53.996Z,9.23
2018-11-06T16:56:25.071Z,8.40
2018-11-06T16:58:56.477Z,9.33
2018-11-06T17:01:27.869Z,9.30
2018-11-06T17:03:58.997Z,9.70
2018-11-06T17:06:36.028Z,9.13
2018-11-06T17:09:09.908Z,10.43
2018-11-06T17:11:41.129Z,9.33
2018-11-06T17:14:12.239Z,8.77
2018-11-06T17:16:43.305Z,9.37
2018-11-06T17:19:14.624Z,10.43
2018-11-06T17:21:46.015Z,10.27
2018-11-06T17:24:18.173Z,10.00
2018-11-06T17:26:49.189Z,9.87
2018-11-06T17:29:20.212Z,10.07
2018-11-06T17:31:57.737Z,9.07
2018-11-06T17:34:31.674Z,9.30
2018-11-06T17:37:06.451Z,9.53
2018-11-06T17:39:39.936Z,9.17
2018-11-06T17:42:14.715Z,9.60
2018-11-06T17:44:47.237Z,10.43
2018-11-06T17:47:19.440Z,9.40
2018-11-06T17:49:53.025Z,8.53
2018-11-06T17:52:25.833Z,8.53
2018-11-06T17:55:01.073Z,9.50
2018-11-06T17:57:32.034Z,8.67
2018-11-06T18:00:03.129Z,8.50
2018-11-06T18:02:34.228Z,8.83
2018-11-06T18:05:07.973Z,8.60
2018-11-06T18:07:39.630Z,8.20
2018-11-06T18:10:13.271Z,8.70
2018-11-06T18:12:44.599Z,11.87
2018-11-06T18:15:15.718Z,10.50
2018-11-06T18:17:47.327Z,9.83
2018-11-06T18:20:18.619Z,10.57
2018-11-06T18:22:49.699Z,10.40
2018-11-06T18:25:20.934Z,10.47
2018-11-06T18:27:51.898Z,10.17
2018-11-06T18:30:23.283Z,10.57
2018-11-06T18:32:54.391Z,10.20
2018-11-06T18:35:25.471Z,10.93
2018-11-06T18:37:56.527Z,10.70
2018-11-06T18:40:27.571Z,10.97
2018-11-06T18:42:58.649Z,12.40
2018-11-06T18:45:30.152Z,13.10
2018-11-06T18:48:01.216Z,15.33
2018-11-06T18:50:32.533Z,14.00
2018-11-06T18:53:03.580Z,14.00
2018-11-06T18:55:36.992Z,12.33
2018-11-06T18:58:08.337Z,13.73
2018-11-06T19:00:39.366Z,13.53
2018-11-06T19:03:10.560Z,11.67
2018-11-06T19:05:41.979Z,11.80
2018-11-06T19:08:13.421Z,12.63
2018-11-06T19:10:44.855Z,12.13
2018-11-06T19:13:15.881Z,11.63
2018-11-06T19:15:47.394Z,11.83
2018-11-06T19:18:19.385Z,11.20
2018-11-06T19:20:50.567Z,9.40
2018-11-06T19:23:24.202Z,7.43
2018-11-06T19:25:55.509Z,5.17
2018-11-06T19:28:29.077Z,5.50
2018-11-06T19:31:03.448Z,4.47
2018-11-06T19:33:34.559Z,4.73
2018-11-06T19:36:06.075Z,4.43
2018-11-06T19:38:37.174Z,4.80
2018-11-06T19:41:08.871Z,4.90
2018-11-06T19:43:42.262Z,5.80
2018-11-06T19:46:13.990Z,5.90
2018-11-06T19:48:45.329Z,4.40
2018-11-06T19:51:17.355Z,4.97
2018-11-06T19:53:48.577Z,5.30
2018-11-06T19:56:19.770Z,4.53
2018-11-06T19:58:51.191Z,5.00
2018-11-06T20:01:22.512Z,4.77
2018-11-06T20:03:53.672Z,4.90
2018-11-06T20:06:24.801Z,5.83
2018-11-06T20:09:03.067Z,5.40
2018-11-06T20:11:35.737Z,5.13
2018-11-06T20:14:06.736Z,4.77
2018-11-06T20:16:38.145Z,5.17
2018-11-06T20:19:09.645Z,5.43
2018-11-06T20:21:41.085Z,5.03
2018-11-06T20:24:12.809Z,5.30
2018-11-06T20:26:43.856Z,5.03
2018-11-06T20:29:15.709Z,5.30
2018-11-06T20:31:53.075Z,5.63
2018-11-06T20:34:24.089Z,5.70
2018-11-06T20:36:55.167Z,5.30
2018-11-06T20:39:26.409Z,6.37
2018-11-06T20:41:57.491Z,5.70
2018-11-06T20:44:31.020Z,5.83
2018-11-06T20:47:07.158Z,5.93
2018-11-06T20:49:38.288Z,5.80
2018-11-06T20:52:09.526Z,5.50
2018-11-06T20:55:02.620Z,5.80
2018-11-06T20:57:35.161Z,5.50
2018-11-06T21:00:10.685Z,5.13
2018-11-06T21:02:42.477Z,6.30
2018-11-06T21:05:22.579Z,5.83
2018-11-06T21:07:56.014Z,5.93
2018-11-06T21:10:30.089Z,7.27
2018-11-06T21:13:02.473Z,6.47
2018-11-06T21:15:33.908Z,7.50
2018-11-06T21:18:05.219Z,6.90
2018-11-06T21:20:36.098Z,7.03
2018-11-06T21:23:09.776Z,6.97
2018-11-06T21:25:43.408Z,6.10
2018-11-06T21:28:21.262Z,6.27
2018-11-06T21:30:54.163Z,6.53
2018-11-06T21:33:25.265Z,6.43
2018-11-06T21:35:56.710Z,6.57
2018-11-06T21:38:28.135Z,6.77
2018-11-06T21:40:59.221Z,6.87
2018-11-06T21:43:30.389Z,6.53
2018-11-06T21:46:01.820Z,6.03
2018-11-06T21:48:33.331Z,7.23
2018-11-06T21:51:04.915Z,7.10
2018-11-06T21:53:36.377Z,7.47
2018-11-06T21:56:07.564Z,6.77
2018-11-06T21:58:38.676Z,6.50
2018-11-06T22:01:10.257Z,6.80
2018-11-06T22:03:41.724Z,6.10
2018-11-06T22:06:15.379Z,6.00
2018-11-06T22:08:46.427Z,6.47
2018-11-06T22:11:20.088Z,7.47
2018-11-06T22:13:52.810Z,7.30
2018-11-06T22:16:24.582Z,6.83
2018-11-06T22:18:57.435Z,7.30
2018-11-06T22:21:28.992Z,7.03
2018-11-06T22:24:00.125Z,6.60
2018-11-06T22:26:31.549Z,7.23
2018-11-06T22:29:21.448Z,7.00
2018-11-06T22:31:56.475Z,6.53
2018-11-06T22:34:27.750Z,6.30
2018-11-06T22:37:00.393Z,6.60
2018-11-06T22:39:31.576Z,7.63
2018-11-06T22:42:02.680Z,6.50
2018-11-06T22:44:36.210Z,7.00
2018-11-06T22:47:08.136Z,6.67
2018-11-06T22:49:42.285Z,6.23
2018-11-06T22:52:13.461Z,6.90
2018-11-06T22:54:44.578Z,6.47
2018-11-06T22:57:15.963Z,6.77
2018-11-06T22:59:47.272Z,6.63
2018-11-06T23:02:18.752Z,6.13
2018-11-06T23:04:49.846Z,7.40
2018-11-06T23:07:38.700Z,6.87
2018-11-06T23:10:09.850Z,6.80
2018-11-06T23:12:41.136Z,6.57
2018-11-06T23:15:12.163Z,6.57
2018-11-06T23:17:43.643Z,7.10
2018-11-06T23:20:15.176Z,7.17
2018-11-06T23:22:46.237Z,6.60
2018-11-06T23:25:19.011Z,7.40
2018-11-06T23:27:50.118Z,5.53
2018-11-06T23:30:22.554Z,7.50
2018-11-06T23:32:52.248Z,6.40
2018-11-06T23:35:23.366Z,6.63
2018-11-06T23:37:54.404Z,6.83
2018-11-06T23:40:25.491Z,6.70
2018-11-06T23:42:56.924Z,6.40
2018-11-06T23:45:27.991Z,6.23
2018-11-06T23:47:59.096Z,6.57
2018-11-06T23:50:30.482Z,6.13
2018-11-06T23:53:01.571Z,6.30
2018-11-06T23:55:32.615Z,6.77
2018-11-06T23:58:06.069Z,6.53
